sensor_id;sensor_type;location;lat;lon;timestamp;P1;durP1;ratioP1;P2;durP2;ratioP2
79015;SDS011;68420;44.714;37.756;2023-04-03T00:00:46;1.92;;;0.98;;
79015;SDS011;68420;44.714;37.756;2023-04-03T00:01:50;5.97;;;0.90;;
79015;SDS011;68420;44.714;37.756;2023-04-03T00:02:51;2.63;;;0.95;;
79015;SDS011;68420;44.714;37.756;2023-04-03T00:03:52;2.20;;;0.88;;
79015;SDS011;68420;44.714;37.756;2023-04-03T00:04:53;1.65;;;0.70;;
79015;SDS011;68420;44.714;37.756;2023-04-03T00:05:55;1.42;;;0.80;;
79015;SDS011;68420;44.714;37.756;2023-04-03T00:06:56;1.77;;;0.70;;
79015;SDS011;68420;44.714;37.756;2023-04-03T00:07:57;1.48;;;0.90;;
79015;SDS011;68420;44.714;37.756;2023-04-03T00:08:59;1.52;;;0.80;;
79015;SDS011;68420;44.714;37.756;2023-04-03T00:10:00;0.77;;;0.70;;
79015;SDS011;68420;44.714;37.756;2023-04-03T00:11:02;1.65;;;0.77;;
79015;SDS011;68420;44.714;37.756;2023-04-03T00:12:04;2.25;;;0.90;;
79015;SDS011;68420;44.714;37.756;2023-04-03T00:13:06;1.05;;;0.65;;
79015;SDS011;68420;44.714;37.756;2023-04-03T00:14:08;1.98;;;0.90;;
79015;SDS011;68420;44.714;37.756;2023-04-03T00:15:09;1.27;;;0.70;;
79015;SDS011;68420;44.714;37.756;2023-04-03T00:16:11;1.63;;;0.75;;
79015;SDS011;68420;44.714;37.756;2023-04-03T00:17:12;1.20;;;0.60;;
79015;SDS011;68420;44.714;37.756;2023-04-03T00:18:14;1.00;;;0.77;;
79015;SDS011;68420;44.714;37.756;2023-04-03T00:19:15;1.67;;;0.60;;
79015;SDS011;68420;44.714;37.756;2023-04-03T00:20:17;2.40;;;0.80;;
79015;SDS011;68420;44.714;37.756;2023-04-03T00:21:18;1.60;;;0.77;;
79015;SDS011;68420;44.714;37.756;2023-04-03T00:22:20;1.63;;;0.80;;
79015;SDS011;68420;44.714;37.756;2023-04-03T00:23:21;1.88;;;0.73;;
79015;SDS011;68420;44.714;37.756;2023-04-03T00:24:24;1.52;;;0.80;;
79015;SDS011;68420;44.714;37.756;2023-04-03T00:25:25;1.42;;;0.77;;
79015;SDS011;68420;44.714;37.756;2023-04-03T00:26:27;1.95;;;0.85;;
79015;SDS011;68420;44.714;37.756;2023-04-03T00:27:28;1.02;;;0.70;;
79015;SDS011;68420;44.714;37.756;2023-04-03T00:28:29;1.23;;;0.80;;
79015;SDS011;68420;44.714;37.756;2023-04-03T00:29:31;0.77;;;0.60;;
79015;SDS011;68420;44.714;37.756;2023-04-03T00:30:32;1.00;;;0.70;;
79015;SDS011;68420;44.714;37.756;2023-04-03T00:31:33;1.75;;;0.90;;
79015;SDS011;68420;44.714;37.756;2023-04-03T00:32:35;1.90;;;0.80;;
79015;SDS011;68420;44.714;37.756;2023-04-03T00:33:36;1.33;;;0.80;;
79015;SDS011;68420;44.714;37.756;2023-04-03T00:34:37;1.42;;;0.80;;
79015;SDS011;68420;44.714;37.756;2023-04-03T00:35:39;1.88;;;0.93;;
79015;SDS011;68420;44.714;37.756;2023-04-03T00:36:41;1.30;;;0.70;;
79015;SDS011;68420;44.714;37.756;2023-04-03T00:37:42;1.48;;;0.70;;
79015;SDS011;68420;44.714;37.756;2023-04-03T00:38:44;2.08;;;0.80;;
79015;SDS011;68420;44.714;37.756;2023-04-03T00:39:45;2.05;;;0.73;;
79015;SDS011;68420;44.714;37.756;2023-04-03T00:40:47;0.93;;;0.68;;
79015;SDS011;68420;44.714;37.756;2023-04-03T00:41:50;1.88;;;0.70;;
79015;SDS011;68420;44.714;37.756;2023-04-03T00:42:54;1.73;;;0.80;;
79015;SDS011;68420;44.714;37.756;2023-04-03T00:43:57;0.85;;;0.70;;
79015;SDS011;68420;44.714;37.756;2023-04-03T00:46:01;3.10;;;0.70;;
79015;SDS011;68420;44.714;37.756;2023-04-03T00:47:03;1.20;;;0.80;;
79015;SDS011;68420;44.714;37.756;2023-04-03T00:48:07;1.73;;;0.70;;
79015;SDS011;68420;44.714;37.756;2023-04-03T00:49:13;1.33;;;0.70;;
79015;SDS011;68420;44.714;37.756;2023-04-03T00:50:15;1.10;;;0.70;;
79015;SDS011;68420;44.714;37.756;2023-04-03T00:51:18;1.30;;;0.75;;
79015;SDS011;68420;44.714;37.756;2023-04-03T00:52:26;0.70;;;0.60;;
79015;SDS011;68420;44.714;37.756;2023-04-03T00:53:31;1.75;;;0.65;;
79015;SDS011;68420;44.714;37.756;2023-04-03T00:54:37;1.35;;;0.77;;
79015;SDS011;68420;44.714;37.756;2023-04-03T00:55:41;2.10;;;0.70;;
79015;SDS011;68420;44.714;37.756;2023-04-03T00:56:43;2.00;;;0.80;;
79015;SDS011;68420;44.714;37.756;2023-04-03T00:57:46;1.40;;;0.60;;
79015;SDS011;68420;44.714;37.756;2023-04-03T00:58:49;1.05;;;0.60;;
79015;SDS011;68420;44.714;37.756;2023-04-03T01:00:04;1.55;;;0.70;;
79015;SDS011;68420;44.714;37.756;2023-04-03T01:01:11;0.82;;;0.63;;
79015;SDS011;68420;44.714;37.756;2023-04-03T01:02:16;1.73;;;0.60;;
79015;SDS011;68420;44.714;37.756;2023-04-03T01:03:19;0.85;;;0.70;;
79015;SDS011;68420;44.714;37.756;2023-04-03T01:04:34;1.27;;;0.85;;
79015;SDS011;68420;44.714;37.756;2023-04-03T01:05:40;1.30;;;0.70;;
79015;SDS011;68420;44.714;37.756;2023-04-03T01:06:41;1.10;;;0.70;;
79015;SDS011;68420;44.714;37.756;2023-04-03T01:07:43;2.22;;;0.70;;
79015;SDS011;68420;44.714;37.756;2023-04-03T01:08:45;1.67;;;0.70;;
79015;SDS011;68420;44.714;37.756;2023-04-03T01:09:50;0.93;;;0.60;;
79015;SDS011;68420;44.714;37.756;2023-04-03T01:10:54;1.08;;;0.70;;
79015;SDS011;68420;44.714;37.756;2023-04-03T01:12:16;1.92;;;0.70;;
79015;SDS011;68420;44.714;37.756;2023-04-03T01:13:30;0.95;;;0.60;;
79015;SDS011;68420;44.714;37.756;2023-04-03T01:14:33;1.55;;;0.70;;
79015;SDS011;68420;44.714;37.756;2023-04-03T01:15:34;1.52;;;0.63;;
79015;SDS011;68420;44.714;37.756;2023-04-03T01:16:36;1.58;;;0.70;;
79015;SDS011;68420;44.714;37.756;2023-04-03T01:17:44;0.90;;;0.70;;
79015;SDS011;68420;44.714;37.756;2023-04-03T01:18:48;1.88;;;0.80;;
79015;SDS011;68420;44.714;37.756;2023-04-03T01:19:50;1.55;;;0.65;;
79015;SDS011;68420;44.714;37.756;2023-04-03T01:22:33;0.43;;;0.40;;
79015;SDS011;68420;44.714;37.756;2023-04-03T01:24:11;1.75;;;0.75;;
79015;SDS011;68420;44.714;37.756;2023-04-03T01:25:30;2.65;;;0.77;;
79015;SDS011;68420;44.714;37.756;2023-04-03T01:26:32;2.03;;;0.63;;
79015;SDS011;68420;44.714;37.756;2023-04-03T01:27:34;2.90;;;0.75;;
79015;SDS011;68420;44.714;37.756;2023-04-03T01:28:36;1.45;;;0.80;;
79015;SDS011;68420;44.714;37.756;2023-04-03T01:29:37;0.70;;;0.60;;
79015;SDS011;68420;44.714;37.756;2023-04-03T01:30:55;1.73;;;0.70;;
79015;SDS011;68420;44.714;37.756;2023-04-03T01:32:08;1.73;;;0.65;;
79015;SDS011;68420;44.714;37.756;2023-04-03T01:33:10;1.02;;;0.60;;
79015;SDS011;68420;44.714;37.756;2023-04-03T01:34:11;0.82;;;0.65;;
79015;SDS011;68420;44.714;37.756;2023-04-03T01:35:13;1.98;;;0.70;;
79015;SDS011;68420;44.714;37.756;2023-04-03T01:36:15;1.42;;;0.80;;
79015;SDS011;68420;44.714;37.756;2023-04-03T01:37:19;0.93;;;0.60;;
79015;SDS011;68420;44.714;37.756;2023-04-03T01:38:21;0.90;;;0.70;;
79015;SDS011;68420;44.714;37.756;2023-04-03T01:39:24;1.25;;;0.60;;
79015;SDS011;68420;44.714;37.756;2023-04-03T01:40:26;1.10;;;0.70;;
79015;SDS011;68420;44.714;37.756;2023-04-03T01:41:27;1.48;;;0.80;;
79015;SDS011;68420;44.714;37.756;2023-04-03T01:42:35;1.48;;;0.80;;
79015;SDS011;68420;44.714;37.756;2023-04-03T01:43:36;1.45;;;0.70;;
79015;SDS011;68420;44.714;37.756;2023-04-03T01:44:37;1.20;;;0.70;;
79015;SDS011;68420;44.714;37.756;2023-04-03T01:45:39;2.03;;;0.90;;
79015;SDS011;68420;44.714;37.756;2023-04-03T01:46:40;1.65;;;0.68;;
79015;SDS011;68420;44.714;37.756;2023-04-03T01:47:43;2.28;;;0.73;;
79015;SDS011;68420;44.714;37.756;2023-04-03T01:48:44;1.10;;;0.70;;
79015;SDS011;68420;44.714;37.756;2023-04-03T01:49:45;2.70;;;0.82;;
79015;SDS011;68420;44.714;37.756;2023-04-03T01:50:47;1.35;;;0.60;;
79015;SDS011;68420;44.714;37.756;2023-04-03T01:51:48;3.17;;;0.90;;
79015;SDS011;68420;44.714;37.756;2023-04-03T01:52:50;1.55;;;0.70;;
79015;SDS011;68420;44.714;37.756;2023-04-03T01:53:51;1.02;;;0.70;;
79015;SDS011;68420;44.714;37.756;2023-04-03T01:54:52;1.88;;;0.80;;
79015;SDS011;68420;44.714;37.756;2023-04-03T01:55:54;2.00;;;0.80;;
79015;SDS011;68420;44.714;37.756;2023-04-03T01:56:55;1.88;;;0.77;;
79015;SDS011;68420;44.714;37.756;2023-04-03T01:57:56;1.48;;;0.90;;
79015;SDS011;68420;44.714;37.756;2023-04-03T01:58:58;1.30;;;0.82;;
79015;SDS011;68420;44.714;37.756;2023-04-03T02:00:00;1.75;;;0.77;;
79015;SDS011;68420;44.714;37.756;2023-04-03T02:01:01;1.02;;;0.70;;
79015;SDS011;68420;44.714;37.756;2023-04-03T02:02:03;3.45;;;1.00;;
79015;SDS011;68420;44.714;37.756;2023-04-03T02:03:05;1.33;;;0.73;;
79015;SDS011;68420;44.714;37.756;2023-04-03T02:04:07;1.40;;;0.90;;
79015;SDS011;68420;44.714;37.756;2023-04-03T02:05:08;1.73;;;0.82;;
79015;SDS011;68420;44.714;37.756;2023-04-03T02:06:10;1.95;;;0.60;;
79015;SDS011;68420;44.714;37.756;2023-04-03T02:07:11;1.08;;;0.85;;
79015;SDS011;68420;44.714;37.756;2023-04-03T02:08:13;1.85;;;0.90;;
79015;SDS011;68420;44.714;37.756;2023-04-03T02:09:15;1.55;;;0.80;;
79015;SDS011;68420;44.714;37.756;2023-04-03T02:10:16;1.50;;;0.93;;
79015;SDS011;68420;44.714;37.756;2023-04-03T02:11:17;1.17;;;0.70;;
79015;SDS011;68420;44.714;37.756;2023-04-03T02:12:18;1.85;;;0.85;;
79015;SDS011;68420;44.714;37.756;2023-04-03T02:13:20;2.10;;;0.80;;
79015;SDS011;68420;44.714;37.756;2023-04-03T02:14:22;1.10;;;0.80;;
79015;SDS011;68420;44.714;37.756;2023-04-03T02:15:24;1.70;;;0.80;;
79015;SDS011;68420;44.714;37.756;2023-04-03T02:16:26;2.33;;;1.00;;
79015;SDS011;68420;44.714;37.756;2023-04-03T02:17:27;1.77;;;0.75;;
79015;SDS011;68420;44.714;37.756;2023-04-03T02:18:29;1.52;;;0.80;;
79015;SDS011;68420;44.714;37.756;2023-04-03T02:19:31;1.92;;;0.80;;
79015;SDS011;68420;44.714;37.756;2023-04-03T02:20:32;2.95;;;0.80;;
79015;SDS011;68420;44.714;37.756;2023-04-03T02:21:34;1.67;;;0.88;;
79015;SDS011;68420;44.714;37.756;2023-04-03T02:22:35;1.50;;;0.90;;
79015;SDS011;68420;44.714;37.756;2023-04-03T02:23:37;2.53;;;0.98;;
79015;SDS011;68420;44.714;37.756;2023-04-03T02:24:38;1.08;;;0.80;;
79015;SDS011;68420;44.714;37.756;2023-04-03T02:25:41;2.35;;;1.00;;
79015;SDS011;68420;44.714;37.756;2023-04-03T02:26:42;2.20;;;0.80;;
79015;SDS011;68420;44.714;37.756;2023-04-03T02:27:43;1.95;;;0.80;;
79015;SDS011;68420;44.714;37.756;2023-04-03T02:28:45;1.85;;;0.70;;
79015;SDS011;68420;44.714;37.756;2023-04-03T02:29:47;3.47;;;1.10;;
79015;SDS011;68420;44.714;37.756;2023-04-03T02:30:48;2.40;;;0.80;;
79015;SDS011;68420;44.714;37.756;2023-04-03T02:31:50;1.20;;;0.80;;
79015;SDS011;68420;44.714;37.756;2023-04-03T02:32:52;2.72;;;0.80;;
79015;SDS011;68420;44.714;37.756;2023-04-03T02:33:54;1.58;;;0.90;;
79015;SDS011;68420;44.714;37.756;2023-04-03T02:34:55;2.08;;;1.00;;
79015;SDS011;68420;44.714;37.756;2023-04-03T02:35:57;1.95;;;1.00;;
79015;SDS011;68420;44.714;37.756;2023-04-03T02:36:59;1.90;;;0.95;;
79015;SDS011;68420;44.714;37.756;2023-04-03T02:38:01;2.00;;;0.88;;
79015;SDS011;68420;44.714;37.756;2023-04-03T02:39:02;0.95;;;0.80;;
79015;SDS011;68420;44.714;37.756;2023-04-03T02:40:04;3.17;;;1.10;;
79015;SDS011;68420;44.714;37.756;2023-04-03T02:41:07;1.45;;;0.73;;
79015;SDS011;68420;44.714;37.756;2023-04-03T02:42:11;2.05;;;0.85;;
79015;SDS011;68420;44.714;37.756;2023-04-03T02:43:12;1.33;;;0.80;;
79015;SDS011;68420;44.714;37.756;2023-04-03T02:44:13;0.90;;;0.80;;
79015;SDS011;68420;44.714;37.756;2023-04-03T02:45:15;1.90;;;1.02;;
79015;SDS011;68420;44.714;37.756;2023-04-03T02:46:16;2.15;;;1.00;;
79015;SDS011;68420;44.714;37.756;2023-04-03T02:47:18;1.13;;;0.80;;
79015;SDS011;68420;44.714;37.756;2023-04-03T02:48:19;1.55;;;0.90;;
79015;SDS011;68420;44.714;37.756;2023-04-03T02:49:20;2.55;;;1.00;;
79015;SDS011;68420;44.714;37.756;2023-04-03T02:50:22;1.10;;;0.70;;
79015;SDS011;68420;44.714;37.756;2023-04-03T02:51:23;1.90;;;1.20;;
79015;SDS011;68420;44.714;37.756;2023-04-03T02:52:26;1.55;;;0.85;;
79015;SDS011;68420;44.714;37.756;2023-04-03T02:53:30;1.98;;;0.90;;
79015;SDS011;68420;44.714;37.756;2023-04-03T02:54:34;3.38;;;1.00;;
79015;SDS011;68420;44.714;37.756;2023-04-03T02:55:38;3.13;;;0.95;;
79015;SDS011;68420;44.714;37.756;2023-04-03T02:56:40;1.38;;;0.98;;
79015;SDS011;68420;44.714;37.756;2023-04-03T02:57:41;2.00;;;1.10;;
79015;SDS011;68420;44.714;37.756;2023-04-03T02:58:43;2.42;;;0.90;;
79015;SDS011;68420;44.714;37.756;2023-04-03T02:59:45;4.47;;;1.10;;
79015;SDS011;68420;44.714;37.756;2023-04-03T03:00:47;1.25;;;0.90;;
79015;SDS011;68420;44.714;37.756;2023-04-03T03:01:48;2.45;;;1.00;;
79015;SDS011;68420;44.714;37.756;2023-04-03T03:02:49;2.75;;;0.95;;
79015;SDS011;68420;44.714;37.756;2023-04-03T03:03:51;2.75;;;1.10;;
79015;SDS011;68420;44.714;37.756;2023-04-03T03:04:52;2.78;;;1.30;;
79015;SDS011;68420;44.714;37.756;2023-04-03T03:07:04;3.95;;;1.10;;
79015;SDS011;68420;44.714;37.756;2023-04-03T03:08:06;2.30;;;0.82;;
79015;SDS011;68420;44.714;37.756;2023-04-03T03:09:07;1.25;;;0.90;;
79015;SDS011;68420;44.714;37.756;2023-04-03T03:10:09;2.22;;;0.93;;
79015;SDS011;68420;44.714;37.756;2023-04-03T03:11:10;2.15;;;0.95;;
79015;SDS011;68420;44.714;37.756;2023-04-03T03:12:12;1.25;;;0.95;;
79015;SDS011;68420;44.714;37.756;2023-04-03T03:13:13;5.50;;;1.20;;
79015;SDS011;68420;44.714;37.756;2023-04-03T03:14:14;3.42;;;1.20;;
79015;SDS011;68420;44.714;37.756;2023-04-03T03:15:16;2.17;;;1.08;;
79015;SDS011;68420;44.714;37.756;2023-04-03T03:16:18;2.67;;;1.10;;
79015;SDS011;68420;44.714;37.756;2023-04-03T03:17:19;2.17;;;1.00;;
79015;SDS011;68420;44.714;37.756;2023-04-03T03:18:21;2.30;;;1.20;;
79015;SDS011;68420;44.714;37.756;2023-04-03T03:19:23;2.78;;;1.00;;
79015;SDS011;68420;44.714;37.756;2023-04-03T03:20:26;2.92;;;1.05;;
79015;SDS011;68420;44.714;37.756;2023-04-03T03:21:27;2.10;;;0.90;;
79015;SDS011;68420;44.714;37.756;2023-04-03T03:22:29;2.15;;;0.90;;
79015;SDS011;68420;44.714;37.756;2023-04-03T03:23:30;2.35;;;1.00;;
79015;SDS011;68420;44.714;37.756;2023-04-03T03:24:33;2.05;;;1.15;;
79015;SDS011;68420;44.714;37.756;2023-04-03T03:25:37;2.45;;;1.10;;
79015;SDS011;68420;44.714;37.756;2023-04-03T03:26:39;2.58;;;1.20;;
79015;SDS011;68420;44.714;37.756;2023-04-03T03:27:41;2.25;;;0.93;;
79015;SDS011;68420;44.714;37.756;2023-04-03T03:28:42;3.10;;;1.20;;
79015;SDS011;68420;44.714;37.756;2023-04-03T03:29:45;2.20;;;1.10;;
79015;SDS011;68420;44.714;37.756;2023-04-03T03:30:48;3.13;;;1.20;;
79015;SDS011;68420;44.714;37.756;2023-04-03T03:31:51;2.00;;;1.00;;
79015;SDS011;68420;44.714;37.756;2023-04-03T03:32:52;2.42;;;1.23;;
79015;SDS011;68420;44.714;37.756;2023-04-03T03:33:54;2.15;;;1.10;;
79015;SDS011;68420;44.714;37.756;2023-04-03T03:34:56;3.63;;;1.20;;
79015;SDS011;68420;44.714;37.756;2023-04-03T03:35:58;2.05;;;1.10;;
79015;SDS011;68420;44.714;37.756;2023-04-03T03:36:59;3.30;;;1.00;;
79015;SDS011;68420;44.714;37.756;2023-04-03T03:38:00;2.55;;;1.33;;
79015;SDS011;68420;44.714;37.756;2023-04-03T03:39:02;2.40;;;1.00;;
79015;SDS011;68420;44.714;37.756;2023-04-03T03:40:03;2.50;;;1.40;;
79015;SDS011;68420;44.714;37.756;2023-04-03T03:41:06;3.63;;;1.30;;
79015;SDS011;68420;44.714;37.756;2023-04-03T03:42:09;2.05;;;1.20;;
79015;SDS011;68420;44.714;37.756;2023-04-03T03:43:10;3.42;;;1.38;;
79015;SDS011;68420;44.714;37.756;2023-04-03T03:44:12;4.22;;;1.00;;
79015;SDS011;68420;44.714;37.756;2023-04-03T03:45:13;3.63;;;1.05;;
79015;SDS011;68420;44.714;37.756;2023-04-03T03:46:16;4.45;;;1.42;;
79015;SDS011;68420;44.714;37.756;2023-04-03T03:47:18;2.17;;;1.02;;
79015;SDS011;68420;44.714;37.756;2023-04-03T03:48:19;2.58;;;1.15;;
79015;SDS011;68420;44.714;37.756;2023-04-03T03:49:21;2.28;;;1.10;;
79015;SDS011;68420;44.714;37.756;2023-04-03T03:50:23;2.88;;;1.20;;
79015;SDS011;68420;44.714;37.756;2023-04-03T03:51:25;2.88;;;1.30;;
79015;SDS011;68420;44.714;37.756;2023-04-03T03:52:26;2.05;;;1.10;;
79015;SDS011;68420;44.714;37.756;2023-04-03T03:53:28;4.25;;;1.50;;
79015;SDS011;68420;44.714;37.756;2023-04-03T03:54:34;1.63;;;1.10;;
79015;SDS011;68420;44.714;37.756;2023-04-03T03:55:35;2.55;;;1.23;;
79015;SDS011;68420;44.714;37.756;2023-04-03T03:56:36;2.55;;;1.20;;
79015;SDS011;68420;44.714;37.756;2023-04-03T03:57:37;3.42;;;1.10;;
79015;SDS011;68420;44.714;37.756;2023-04-03T03:58:39;3.90;;;1.45;;
79015;SDS011;68420;44.714;37.756;2023-04-03T03:59:41;2.60;;;1.25;;
79015;SDS011;68420;44.714;37.756;2023-04-03T04:00:43;2.40;;;1.10;;
79015;SDS011;68420;44.714;37.756;2023-04-03T04:01:45;4.85;;;1.20;;
79015;SDS011;68420;44.714;37.756;2023-04-03T04:02:47;4.43;;;1.17;;
79015;SDS011;68420;44.714;37.756;2023-04-03T04:03:52;2.70;;;1.15;;
79015;SDS011;68420;44.714;37.756;2023-04-03T04:04:58;3.30;;;1.30;;
79015;SDS011;68420;44.714;37.756;2023-04-03T04:06:00;2.72;;;1.58;;
79015;SDS011;68420;44.714;37.756;2023-04-03T04:07:02;2.75;;;1.20;;
79015;SDS011;68420;44.714;37.756;2023-04-03T04:08:05;4.78;;;1.40;;
79015;SDS011;68420;44.714;37.756;2023-04-03T04:09:08;2.80;;;1.17;;
79015;SDS011;68420;44.714;37.756;2023-04-03T04:10:10;5.55;;;1.45;;
79015;SDS011;68420;44.714;37.756;2023-04-03T04:11:11;3.28;;;1.20;;
79015;SDS011;68420;44.714;37.756;2023-04-03T04:12:14;4.65;;;1.42;;
79015;SDS011;68420;44.714;37.756;2023-04-03T04:13:16;3.67;;;1.17;;
79015;SDS011;68420;44.714;37.756;2023-04-03T04:14:18;3.72;;;1.30;;
79015;SDS011;68420;44.714;37.756;2023-04-03T04:15:21;3.55;;;1.25;;
79015;SDS011;68420;44.714;37.756;2023-04-03T04:16:24;4.25;;;1.20;;
79015;SDS011;68420;44.714;37.756;2023-04-03T04:17:25;4.15;;;1.20;;
79015;SDS011;68420;44.714;37.756;2023-04-03T04:18:26;5.43;;;1.48;;
79015;SDS011;68420;44.714;37.756;2023-04-03T04:19:28;4.05;;;1.25;;
79015;SDS011;68420;44.714;37.756;2023-04-03T04:20:29;3.78;;;1.10;;
79015;SDS011;68420;44.714;37.756;2023-04-03T04:21:31;2.95;;;1.10;;
79015;SDS011;68420;44.714;37.756;2023-04-03T04:22:33;3.20;;;1.30;;
79015;SDS011;68420;44.714;37.756;2023-04-03T04:23:34;5.78;;;1.85;;
79015;SDS011;68420;44.714;37.756;2023-04-03T04:24:35;7.53;;;1.50;;
79015;SDS011;68420;44.714;37.756;2023-04-03T04:25:37;3.70;;;1.40;;
79015;SDS011;68420;44.714;37.756;2023-04-03T04:26:39;2.63;;;1.40;;
79015;SDS011;68420;44.714;37.756;2023-04-03T04:27:41;2.67;;;1.23;;
79015;SDS011;68420;44.714;37.756;2023-04-03T04:28:43;3.17;;;1.20;;
79015;SDS011;68420;44.714;37.756;2023-04-03T04:29:45;5.10;;;1.20;;
79015;SDS011;68420;44.714;37.756;2023-04-03T04:30:46;4.18;;;1.40;;
79015;SDS011;68420;44.714;37.756;2023-04-03T04:31:49;2.92;;;1.50;;
79015;SDS011;68420;44.714;37.756;2023-04-03T04:32:51;8.18;;;1.67;;
79015;SDS011;68420;44.714;37.756;2023-04-03T04:33:52;3.22;;;1.17;;
79015;SDS011;68420;44.714;37.756;2023-04-03T04:34:54;6.53;;;1.67;;
79015;SDS011;68420;44.714;37.756;2023-04-03T04:35:56;6.25;;;1.45;;
79015;SDS011;68420;44.714;37.756;2023-04-03T04:36:57;4.63;;;1.40;;
79015;SDS011;68420;44.714;37.756;2023-04-03T04:37:59;7.68;;;1.65;;
79015;SDS011;68420;44.714;37.756;2023-04-03T04:39:00;6.75;;;1.40;;
79015;SDS011;68420;44.714;37.756;2023-04-03T04:40:02;5.15;;;1.27;;
79015;SDS011;68420;44.714;37.756;2023-04-03T04:41:04;4.80;;;1.20;;
79015;SDS011;68420;44.714;37.756;2023-04-03T04:42:05;7.45;;;1.58;;
79015;SDS011;68420;44.714;37.756;2023-04-03T04:43:08;8.00;;;1.73;;
79015;SDS011;68420;44.714;37.756;2023-04-03T04:44:11;4.40;;;1.50;;
79015;SDS011;68420;44.714;37.756;2023-04-03T04:45:13;2.55;;;1.00;;
79015;SDS011;68420;44.714;37.756;2023-04-03T04:47:23;3.40;;;1.20;;
79015;SDS011;68420;44.714;37.756;2023-04-03T04:48:26;3.92;;;1.30;;
79015;SDS011;68420;44.714;37.756;2023-04-03T04:49:27;5.35;;;1.60;;
79015;SDS011;68420;44.714;37.756;2023-04-03T04:50:29;2.90;;;1.42;;
79015;SDS011;68420;44.714;37.756;2023-04-03T04:51:30;4.40;;;1.40;;
79015;SDS011;68420;44.714;37.756;2023-04-03T04:52:32;3.05;;;1.27;;
79015;SDS011;68420;44.714;37.756;2023-04-03T04:53:34;3.13;;;1.08;;
79015;SDS011;68420;44.714;37.756;2023-04-03T04:54:36;4.15;;;1.30;;
79015;SDS011;68420;44.714;37.756;2023-04-03T04:55:37;3.53;;;1.00;;
79015;SDS011;68420;44.714;37.756;2023-04-03T04:56:38;6.03;;;1.38;;
79015;SDS011;68420;44.714;37.756;2023-04-03T04:57:40;6.18;;;1.38;;
79015;SDS011;68420;44.714;37.756;2023-04-03T04:58:42;8.70;;;1.80;;
79015;SDS011;68420;44.714;37.756;2023-04-03T04:59:43;4.22;;;1.20;;
79015;SDS011;68420;44.714;37.756;2023-04-03T05:00:44;3.70;;;1.20;;
79015;SDS011;68420;44.714;37.756;2023-04-03T05:01:46;2.22;;;1.05;;
79015;SDS011;68420;44.714;37.756;2023-04-03T05:02:50;1.67;;;0.90;;
79015;SDS011;68420;44.714;37.756;2023-04-03T05:03:53;3.50;;;1.40;;
79015;SDS011;68420;44.714;37.756;2023-04-03T05:04:55;4.20;;;1.27;;
79015;SDS011;68420;44.714;37.756;2023-04-03T05:06:00;2.17;;;0.98;;
79015;SDS011;68420;44.714;37.756;2023-04-03T05:07:05;3.72;;;1.38;;
79015;SDS011;68420;44.714;37.756;2023-04-03T05:08:09;2.55;;;1.13;;
79015;SDS011;68420;44.714;37.756;2023-04-03T05:09:13;2.78;;;0.93;;
79015;SDS011;68420;44.714;37.756;2023-04-03T05:10:16;2.42;;;1.00;;
79015;SDS011;68420;44.714;37.756;2023-04-03T05:11:17;4.43;;;1.20;;
79015;SDS011;68420;44.714;37.756;2023-04-03T05:12:20;4.40;;;1.23;;
79015;SDS011;68420;44.714;37.756;2023-04-03T05:13:28;3.38;;;1.05;;
79015;SDS011;68420;44.714;37.756;2023-04-03T05:14:30;3.70;;;1.20;;
79015;SDS011;68420;44.714;37.756;2023-04-03T05:15:36;4.35;;;0.80;;
79015;SDS011;68420;44.714;37.756;2023-04-03T05:16:38;3.65;;;1.13;;
79015;SDS011;68420;44.714;37.756;2023-04-03T05:17:41;3.63;;;1.60;;
79015;SDS011;68420;44.714;37.756;2023-04-03T05:18:45;2.92;;;0.93;;
79015;SDS011;68420;44.714;37.756;2023-04-03T05:19:52;3.38;;;1.00;;
79015;SDS011;68420;44.714;37.756;2023-04-03T05:20:55;2.65;;;1.10;;
79015;SDS011;68420;44.714;37.756;2023-04-03T05:21:58;2.55;;;1.10;;
79015;SDS011;68420;44.714;37.756;2023-04-03T05:23:00;3.38;;;0.93;;
79015;SDS011;68420;44.714;37.756;2023-04-03T05:24:02;2.35;;;1.00;;
79015;SDS011;68420;44.714;37.756;2023-04-03T05:25:07;4.72;;;1.08;;
79015;SDS011;68420;44.714;37.756;2023-04-03T05:26:09;4.20;;;1.17;;
79015;SDS011;68420;44.714;37.756;2023-04-03T05:27:10;2.35;;;1.17;;
79015;SDS011;68420;44.714;37.756;2023-04-03T05:28:15;2.92;;;1.05;;
79015;SDS011;68420;44.714;37.756;2023-04-03T05:29:16;2.80;;;1.05;;
79015;SDS011;68420;44.714;37.756;2023-04-03T05:30:17;2.20;;;0.95;;
79015;SDS011;68420;44.714;37.756;2023-04-03T05:31:19;1.75;;;0.85;;
79015;SDS011;68420;44.714;37.756;2023-04-03T05:32:22;1.38;;;1.00;;
79015;SDS011;68420;44.714;37.756;2023-04-03T05:33:31;2.33;;;1.00;;
79015;SDS011;68420;44.714;37.756;2023-04-03T05:34:34;3.67;;;1.00;;
79015;SDS011;68420;44.714;37.756;2023-04-03T05:35:37;1.50;;;0.98;;
79015;SDS011;68420;44.714;37.756;2023-04-03T05:36:45;3.70;;;1.05;;
79015;SDS011;68420;44.714;37.756;2023-04-03T05:37:48;3.67;;;1.10;;
79015;SDS011;68420;44.714;37.756;2023-04-03T05:38:50;2.25;;;0.93;;
79015;SDS011;68420;44.714;37.756;2023-04-03T05:39:52;2.42;;;1.00;;
79015;SDS011;68420;44.714;37.756;2023-04-03T05:40:54;4.47;;;1.40;;
79015;SDS011;68420;44.714;37.756;2023-04-03T05:41:55;1.40;;;0.90;;
79015;SDS011;68420;44.714;37.756;2023-04-03T05:42:57;2.03;;;1.00;;
79015;SDS011;68420;44.714;37.756;2023-04-03T05:44:00;1.08;;;0.80;;
79015;SDS011;68420;44.714;37.756;2023-04-03T05:45:02;2.00;;;0.95;;
79015;SDS011;68420;44.714;37.756;2023-04-03T05:46:03;1.05;;;0.90;;
79015;SDS011;68420;44.714;37.756;2023-04-03T05:47:05;5.50;;;1.30;;
79015;SDS011;68420;44.714;37.756;2023-04-03T05:48:07;2.63;;;1.02;;
79015;SDS011;68420;44.714;37.756;2023-04-03T05:49:08;2.35;;;1.10;;
79015;SDS011;68420;44.714;37.756;2023-04-03T05:50:11;3.40;;;1.02;;
79015;SDS011;68420;44.714;37.756;2023-04-03T05:51:19;2.08;;;1.00;;
79015;SDS011;68420;44.714;37.756;2023-04-03T05:52:27;2.30;;;1.30;;
79015;SDS011;68420;44.714;37.756;2023-04-03T05:53:31;1.38;;;0.80;;
79015;SDS011;68420;44.714;37.756;2023-04-03T05:54:38;2.80;;;1.17;;
79015;SDS011;68420;44.714;37.756;2023-04-03T05:55:48;1.55;;;0.90;;
79015;SDS011;68420;44.714;37.756;2023-04-03T05:56:50;2.83;;;1.23;;
79015;SDS011;68420;44.714;37.756;2023-04-03T05:57:52;1.83;;;0.95;;
79015;SDS011;68420;44.714;37.756;2023-04-03T05:58:55;2.75;;;1.20;;
79015;SDS011;68420;44.714;37.756;2023-04-03T05:59:57;3.08;;;0.82;;
79015;SDS011;68420;44.714;37.756;2023-04-03T06:00:59;3.00;;;1.00;;
79015;SDS011;68420;44.714;37.756;2023-04-03T06:02:01;2.42;;;1.00;;
79015;SDS011;68420;44.714;37.756;2023-04-03T06:03:03;2.30;;;1.00;;
79015;SDS011;68420;44.714;37.756;2023-04-03T06:04:05;2.58;;;1.10;;
79015;SDS011;68420;44.714;37.756;2023-04-03T06:05:09;1.65;;;1.20;;
79015;SDS011;68420;44.714;37.756;2023-04-03T06:06:13;1.10;;;0.70;;
79015;SDS011;68420;44.714;37.756;2023-04-03T06:07:15;2.50;;;1.08;;
79015;SDS011;68420;44.714;37.756;2023-04-03T06:08:19;1.88;;;0.93;;
79015;SDS011;68420;44.714;37.756;2023-04-03T06:09:22;5.30;;;1.20;;
79015;SDS011;68420;44.714;37.756;2023-04-03T06:10:25;1.92;;;1.00;;
79015;SDS011;68420;44.714;37.756;2023-04-03T06:11:26;2.00;;;0.80;;
79015;SDS011;68420;44.714;37.756;2023-04-03T06:12:28;4.40;;;1.02;;
79015;SDS011;68420;44.714;37.756;2023-04-03T06:13:31;2.15;;;1.05;;
79015;SDS011;68420;44.714;37.756;2023-04-03T06:14:32;2.53;;;1.00;;
79015;SDS011;68420;44.714;37.756;2023-04-03T06:15:36;1.70;;;1.00;;
79015;SDS011;68420;44.714;37.756;2023-04-03T06:16:38;3.30;;;1.23;;